Time;durP1;ratioP1;P1;durP2;ratioP2;P2;SDS_P1;SDS_P2;PMS_P1;PMS_P2;Temp;Humidity;BMP_temperature;BMP_pressure;BME280_temperature;BME280_humidity;BME280_pressure;Samples;Min_cycle;Max_cycle;Signal;HPM_P1;HPM_P2
2024/01/02 00:01:24;;;;;;;15.07;3.22;;;7.00;99.90;;;;;;5113233;28;20490;-56
2024/01/02 00:03:49;;;;;;;15.95;3.08;;;6.80;99.90;;;;;;5113379;27;20042;-55
2024/01/02 00:06:16;;;;;;;14.77;3.25;;;6.60;99.90;;;;;;5113166;28;20122;-56
2024/01/02 00:08:42;;;;;;;18.27;2.60;;;6.90;99.90;;;;;;5105312;28;20054;-55
2024/01/02 00:11:09;;;;;;;22.77;3.75;;;6.80;99.90;;;;;;5113151;28;20039;-56
2024/01/02 00:13:35;;;;;;;18.48;3.33;;;7.00;99.90;;;;;;5113160;28;20485;-54
2024/01/02 00:16:01;;;;;;;13.38;3.13;;;6.40;99.90;;;;;;5113167;28;20092;-53
2024/01/02 00:18:26;;;;;;;12.15;2.80;;;6.40;99.90;;;;;;5112731;28;20027;-53
2024/01/02 00:20:52;;;;;;;16.85;3.05;;;6.60;99.90;;;;;;5112996;28;20371;-52
2024/01/02 00:23:18;;;;;;;16.35;3.00;;;6.40;99.90;;;;;;5112382;28;20039;-54
2024/01/02 00:25:44;;;;;;;11.32;3.13;;;6.60;99.90;;;;;;5030681;28;20081;-51
2024/01/02 00:28:11;;;;;;;13.43;2.95;;;7.00;99.90;;;;;;5029081;28;20038;-55
2024/01/02 00:30:36;;;;;;;14.13;3.38;;;6.60;99.90;;;;;;5028728;28;20054;-58
2024/01/02 00:33:05;;;;;;;16.77;2.92;;;7.00;99.90;;;;;;5076174;28;20059;-53
2024/01/02 00:35:31;;;;;;;12.75;3.10;;;7.00;99.90;;;;;;5107544;28;20123;-53
2024/01/02 00:37:56;;;;;;;21.52;3.50;;;7.00;99.90;;;;;;5095323;28;20163;-56
2024/01/02 00:40:22;;;;;;;17.67;3.28;;;6.40;99.90;;;;;;5103877;28;20070;-56
2024/01/02 00:42:48;;;;;;;19.17;3.85;;;6.30;99.90;;;;;;5107307;28;20073;-55
2024/01/02 00:45:14;;;;;;;14.23;3.13;;;6.90;99.90;;;;;;5112402;28;20074;-51
2024/01/02 00:47:40;;;;;;;17.55;3.38;;;7.10;99.90;;;;;;5028957;28;20029;-57
2024/01/02 00:50:06;;;;;;;13.73;3.45;;;6.60;99.90;;;;;;5101801;28;20435;-56
2024/01/02 00:52:32;;;;;;;19.65;3.35;;;6.40;99.90;;;;;;5112444;28;20505;-58
2024/01/02 00:54:58;;;;;;;16.90;3.53;;;7.00;99.90;;;;;;5104510;28;20493;-57
2024/01/02 00:57:26;;;;;;;28.77;3.60;;;7.00;99.90;;;;;;5031201;28;20045;-56
2024/01/02 00:59:51;;;;;;;21.15;3.55;;;6.30;99.90;;;;;;5027685;28;20069;-57
2024/01/02 01:02:17;;;;;;;19.08;4.00;;;6.60;99.90;;;;;;5028746;28;20073;-58
2024/01/02 01:04:48;;;;;;;18.63;3.60;;;7.10;99.90;;;;;;5028687;28;20038;-55
2024/01/02 01:07:14;;;;;;;22.55;3.85;;;6.40;99.90;;;;;;5107923;28;20036;-58
2024/01/02 01:09:39;;;;;;;16.45;3.63;;;6.40;99.90;;;;;;5112129;28;20110;-55
2024/01/02 01:12:06;;;;;;;21.33;3.70;;;6.90;99.90;;;;;;5031619;28;20045;-58
2024/01/02 01:14:32;;;;;;;19.55;4.07;;;7.00;99.90;;;;;;5112003;28;20047;-57
2024/01/02 01:16:58;;;;;;;19.73;4.22;;;7.20;99.90;;;;;;5038254;28;20499;-57
2024/01/02 01:19:24;;;;;;;23.10;4.18;;;6.50;99.90;;;;;;5111713;28;20486;-58
2024/01/02 01:21:51;;;;;;;26.75;4.40;;;6.90;99.90;;;;;;5081103;28;20052;-58
2024/01/02 01:24:17;;;;;;;25.20;4.05;;;7.20;99.90;;;;;;5070026;28;20043;-59
2024/01/02 01:26:43;;;;;;;25.33;4.70;;;7.30;99.90;;;;;;5103594;28;20074;-59
2024/01/02 01:29:09;;;;;;;17.23;4.00;;;6.60;99.90;;;;;;5026970;28;21314;-58
2024/01/02 01:31:35;;;;;;;24.30;3.97;;;7.40;99.90;;;;;;5026131;28;20408;-56
2024/01/02 01:34:00;;;;;;;14.32;4.00;;;7.20;99.90;;;;;;5069157;28;20081;-57
2024/01/02 01:36:26;;;;;;;22.55;4.22;;;7.40;99.90;;;;;;5028317;28;20474;-57
2024/01/02 01:38:52;;;;;;;22.50;4.45;;;7.40;99.90;;;;;;5028581;28;20510;-58
2024/01/02 01:41:18;;;;;;;13.93;4.28;;;6.60;99.90;;;;;;5028331;28;20451;-58
2024/01/02 01:43:45;;;;;;;15.38;3.97;;;7.60;99.90;;;;;;5088518;28;20036;-58
2024/01/02 01:46:11;;;;;;;19.33;4.63;;;6.70;99.90;;;;;;5013273;28;20037;-58
2024/01/02 01:48:38;;;;;;;18.27;4.78;;;6.80;99.90;;;;;;5049681;28;20032;-59
2024/01/02 01:51:04;;;;;;;16.83;4.70;;;7.00;99.90;;;;;;5111303;28;20047;-58
2024/01/02 01:53:30;;;;;;;15.27;3.95;;;7.40;99.90;;;;;;5111364;28;20501;-58
2024/01/02 01:55:57;;;;;;;21.35;4.30;;;7.50;99.90;;;;;;5082484;28;20071;-58
2024/01/02 01:58:22;;;;;;;20.00;4.22;;;6.70;99.90;;;;;;5026821;28;20034;-59
2024/01/02 02:00:48;;;;;;;19.63;4.97;;;7.50;99.90;;;;;;5052040;28;20056;-58
2024/01/02 02:03:16;;;;;;;25.20;4.18;;;7.00;99.90;;;;;;5102950;28;20036;-59
2024/01/02 02:05:42;;;;;;;20.08;4.57;;;7.00;99.90;;;;;;5074435;28;20046;-58
2024/01/02 02:08:07;;;;;;;16.20;3.92;;;6.70;99.90;;;;;;5063786;28;20426;-58
2024/01/02 02:10:33;;;;;;;17.98;5.30;;;7.50;99.90;;;;;;5102243;28;20132;-58
2024/01/02 02:12:59;;;;;;;19.17;4.55;;;6.80;99.90;;;;;;5102286;28;20047;-58
2024/01/02 02:15:24;;;;;;;21.33;4.00;;;7.60;99.90;;;;;;5067163;28;20063;-59
2024/01/02 02:17:50;;;;;;;15.57;3.92;;;7.60;99.90;;;;;;5099423;28;20039;-59
2024/01/02 02:20:16;;;;;;;16.95;4.80;;;7.40;99.90;;;;;;5026375;28;20034;-58
2024/01/02 02:22:49;;;;;;;18.92;4.10;;;6.80;99.90;;;;;;5070373;28;20404;-58
2024/01/02 02:25:16;;;;;;;18.48;4.35;;;7.10;99.90;;;;;;5069560;28;20390;-58
2024/01/02 02:27:44;;;;;;;14.38;4.10;;;6.80;99.90;;;;;;5110724;28;20031;-58
2024/01/02 02:30:10;;;;;;;14.35;3.92;;;7.90;99.90;;;;;;5110588;28;20073;-58
2024/01/02 02:32:35;;;;;;;16.58;4.30;;;7.60;99.90;;;;;;5030647;28;20103;-58
2024/01/02 02:35:01;;;;;;;16.00;3.70;;;7.60;99.90;;;;;;5107717;28;20437;-59
2024/01/02 02:37:27;;;;;;;13.00;3.42;;;6.80;99.90;;;;;;5034350;28;20055;-59
2024/01/02 02:39:52;;;;;;;15.35;3.90;;;6.80;99.90;;;;;;5110991;28;20391;-58
2024/01/02 02:42:18;;;;;;;20.30;4.50;;;7.00;99.90;;;;;;5110768;28;20044;-59
2024/01/02 02:44:44;;;;;;;13.95;3.72;;;7.70;99.90;;;;;;5110822;28;20058;-59
2024/01/02 02:47:10;;;;;;;11.95;3.63;;;6.90;99.90;;;;;;5110670;28;20028;-59
2024/01/02 02:49:37;;;;;;;15.65;3.90;;;7.60;99.90;;;;;;5111076;28;20406;-58
2024/01/02 02:52:03;;;;;;;13.70;3.80;;;6.90;99.90;;;;;;5103679;28;20036;-58
2024/01/02 02:54:28;;;;;;;10.95;3.83;;;6.90;99.90;;;;;;5083547;28;20050;-59
2024/01/02 02:56:54;;;;;;;12.65;4.22;;;7.60;99.90;;;;;;5110355;28;20058;-59
2024/01/02 02:59:19;;;;;;;17.20;4.38;;;7.00;99.90;;;;;;5112469;28;20043;-59
2024/01/02 03:01:45;;;;;;;16.95;3.95;;;7.70;99.90;;;;;;5114674;28;20043;-58
2024/01/02 03:04:11;;;;;;;11.15;3.67;;;7.70;99.90;;;;;;5113446;28;20052;-58
2024/01/02 03:06:36;;;;;;;11.63;3.95;;;7.00;99.90;;;;;;5114554;27;20039;-58
2024/01/02 03:09:03;;;;;;;11.77;3.92;;;7.70;99.90;;;;;;5114456;28;20393;-59
2024/01/02 03:11:29;;;;;;;11.18;3.78;;;6.90;99.90;;;;;;5048142;27;20437;-59
2024/01/02 03:13:55;;;;;;;18.35;5.28;;;7.00;99.90;;;;;;5056245;28;20031;-59
2024/01/02 03:16:23;;;;;;;16.05;5.28;;;7.00;99.90;;;;;;5105483;28;20035;-58
2024/01/02 03:18:48;;;;;;;19.15;5.68;;;7.70;99.90;;;;;;5111986;28;20051;-59
2024/01/02 03:21:14;;;;;;;16.30;5.65;;;7.60;99.90;;;;;;5086009;28;20031;-58
2024/01/02 03:23:40;;;;;;;11.88;5.35;;;7.30;99.90;;;;;;5108226;27;20051;-58
2024/01/02 03:26:06;;;;;;;14.68;5.78;;;7.50;99.90;;;;;;5030146;28;20033;-60
2024/01/02 03:28:31;;;;;;;16.85;6.45;;;7.60;99.90;;;;;;5030412;28;20033;-59
2024/01/02 03:30:57;;;;;;;16.77;5.68;;;7.70;99.90;;;;;;5111304;28;20046;-60
2024/01/02 03:33:23;;;;;;;12.90;5.63;;;7.70;99.90;;;;;;5113679;28;20087;-59
2024/01/02 03:35:49;;;;;;;16.55;5.93;;;7.80;99.90;;;;;;5113864;28;20074;-59
2024/01/02 03:38:15;;;;;;;9.30;4.93;;;7.10;99.90;;;;;;5088093;28;20054;-59
2024/01/02 03:40:41;;;;;;;13.45;5.63;;;7.10;99.90;;;;;;5063476;28;20056;-60
2024/01/02 03:43:07;;;;;;;14.82;6.15;;;7.70;99.90;;;;;;5107282;28;20032;-59
2024/01/02 03:45:33;;;;;;;12.85;5.80;;;7.80;99.90;;;;;;5107965;28;20482;-59
2024/01/02 03:48:00;;;;;;;11.30;4.72;;;6.90;99.90;;;;;;5113618;28;20038;-59
2024/01/02 03:50:26;;;;;;;10.35;4.82;;;7.00;99.90;;;;;;5114016;28;20050;-60
2024/01/02 03:52:51;;;;;;;10.10;4.97;;;7.80;99.90;;;;;;5113508;28;20043;-58
2024/01/02 03:55:17;;;;;;;8.82;4.53;;;7.80;99.90;;;;;;5113629;28;20031;-59
2024/01/02 03:57:43;;;;;;;11.35;4.50;;;7.00;99.90;;;;;;5110324;28;20038;-57
2024/01/02 04:00:09;;;;;;;11.88;4.80;;;7.10;99.90;;;;;;5113387;28;20059;-57
2024/01/02 04:02:35;;;;;;;9.88;4.88;;;7.70;99.90;;;;;;5113031;28;20406;-57
2024/01/02 04:05:03;;;;;;;12.88;4.97;;;7.70;99.90;;;;;;5113314;28;20032;-57
2024/01/02 04:07:28;;;;;;;10.15;5.65;;;7.20;99.90;;;;;;5097827;28;20041;-57
2024/01/02 04:09:54;;;;;;;10.90;4.88;;;7.00;99.90;;;;;;5028120;28;20479;-59
2024/01/02 04:12:20;;;;;;;11.45;5.15;;;7.70;99.90;;;;;;5101277;28;20042;-57
2024/01/02 04:14:45;;;;;;;10.63;5.68;;;7.00;99.90;;;;;;5109074;28;20031;-57
2024/01/02 04:17:11;;;;;;;12.15;5.70;;;7.30;99.90;;;;;;5112919;28;20104;-58
2024/01/02 04:19:37;;;;;;;9.65;5.20;;;7.00;99.90;;;;;;5034366;28;20499;-58
2024/01/02 04:22:02;;;;;;;10.32;6.07;;;7.60;99.90;;;;;;5029576;28;20445;-57
2024/01/02 04:24:28;;;;;;;9.85;5.60;;;7.90;99.90;;;;;;5076561;28;20474;-58
2024/01/02 04:26:54;;;;;;;13.70;6.10;;;7.00;99.90;;;;;;5104060;28;20513;-57
2024/01/02 04:29:19;;;;;;;10.73;6.35;;;7.00;99.90;;;;;;5112767;28;20527;-57
2024/01/02 04:31:45;;;;;;;12.15;6.20;;;7.50;99.90;;;;;;5106062;28;20678;-58
2024/01/02 04:34:11;;;;;;;8.52;5.93;;;7.70;99.90;;;;;;5034376;28;20636;-58
2024/01/02 04:36:36;;;;;;;10.85;5.95;;;7.70;99.90;;;;;;5029524;28;20026;-57
2024/01/02 04:39:03;;;;;;;12.40;6.05;;;7.20;99.90;;;;;;5028945;28;20033;-58
2024/01/02 04:41:28;;;;;;;9.07;5.75;;;7.90;99.90;;;;;;5029158;28;20037;-58
2024/01/02 04:43:54;;;;;;;9.40;5.65;;;7.80;99.90;;;;;;5050033;28;20034;-58
2024/01/02 04:46:20;;;;;;;10.13;5.80;;;7.00;99.90;;;;;;5112306;28;20507;-58
2024/01/02 04:48:46;;;;;;;11.07;6.18;;;7.00;99.90;;;;;;5099834;28;20125;-58
2024/01/02 04:51:12;;;;;;;8.30;5.85;;;7.90;99.90;;;;;;5104080;27;20097;-58
2024/01/02 04:53:37;;;;;;;9.60;6.40;;;7.00;99.90;;;;;;5112517;28;20043;-58
2024/01/02 04:56:03;;;;;;;10.20;6.30;;;7.10;99.90;;;;;;5112417;28;20509;-58
2024/01/02 04:58:29;;;;;;;11.00;6.15;;;7.00;99.90;;;;;;5112333;28;20405;-59
2024/01/02 05:00:54;;;;;;;12.38;6.47;;;7.10;99.90;;;;;;5111892;28;20035;-59
2024/01/02 05:03:20;;;;;;;11.02;6.53;;;7.30;99.90;;;;;;5110145;28;20051;-59
2024/01/02 05:05:46;;;;;;;12.80;6.88;;;7.70;99.90;;;;;;5112075;28;20032;-59
2024/01/02 05:08:12;;;;;;;12.20;6.78;;;8.00;99.90;;;;;;5023032;28;20186;-59
2024/01/02 05:10:38;;;;;;;15.05;6.85;;;7.90;99.90;;;;;;5102612;28;20375;-59
2024/01/02 05:13:03;;;;;;;11.35;6.68;;;7.80;99.90;;;;;;5112073;28;20046;-59
2024/01/02 05:15:29;;;;;;;12.68;8.18;;;8.00;99.90;;;;;;5110065;28;20088;-58
2024/01/02 05:17:55;;;;;;;10.93;6.50;;;8.00;99.90;;;;;;5111216;28;20032;-59
2024/01/02 05:20:20;;;;;;;9.65;6.07;;;7.60;99.90;;;;;;5112081;28;20039;-60
2024/01/02 05:22:46;;;;;;;9.00;6.00;;;7.50;99.90;;;;;;5111736;28;20590;-59
2024/01/02 05:25:12;;;;;;;11.43;6.35;;;7.90;99.90;;;;;;5112096;28;20100;-59
2024/01/02 05:27:38;;;;;;;9.57;6.57;;;7.70;99.90;;;;;;5099325;28;20194;-59
2024/01/02 05:30:04;;;;;;;11.18;6.47;;;7.60;99.90;;;;;;5028283;28;20531;-58
2024/01/02 05:32:30;;;;;;;10.80;6.78;;;8.10;99.90;;;;;;5027910;28;20545;-59
2024/01/02 05:34:56;;;;;;;9.38;6.03;;;7.70;99.90;;;;;;5027036;28;20057;-59
2024/01/02 05:37:21;;;;;;;9.57;6.28;;;7.60;99.90;;;;;;5027944;28;20094;-58
2024/01/02 05:39:47;;;;;;;11.35;7.10;;;8.10;99.90;;;;;;5028189;28;20121;-59
2024/01/02 05:42:12;;;;;;;11.57;7.40;;;8.20;99.90;;;;;;5028541;28;20045;-58
2024/01/02 05:44:38;;;;;;;11.23;6.55;;;8.20;99.90;;;;;;5027937;28;20068;-58
2024/01/02 05:47:04;;;;;;;12.52;7.03;;;7.40;99.90;;;;;;5028165;28;20098;-58
2024/01/02 05:49:29;;;;;;;11.05;6.88;;;8.20;99.90;;;;;;5031685;28;20399;-59
2024/01/02 05:51:56;;;;;;;11.07;6.78;;;8.00;99.90;;;;;;5111277;28;20042;-58
2024/01/02 05:54:22;;;;;;;9.00;5.43;;;7.40;99.90;;;;;;5085852;28;20062;-59
2024/01/02 05:56:48;;;;;;;8.13;5.05;;;7.50;99.90;;;;;;5099120;28;20033;-59
2024/01/02 05:59:14;;;;;;;7.40;4.70;;;7.50;99.90;;;;;;5087128;28;20025;-58
2024/01/02 06:01:39;;;;;;;7.93;5.20;;;7.50;99.90;;;;;;5019733;28;20042;-58
2024/01/02 06:04:05;;;;;;;7.40;4.45;;;8.20;99.90;;;;;;5105403;28;20050;-59
2024/01/02 06:06:30;;;;;;;6.65;4.30;;;8.30;99.90;;;;;;5104239;28;20394;-59
2024/01/02 06:08:56;;;;;;;6.68;3.67;;;8.30;99.90;;;;;;5106949;28;20035;-58
2024/01/02 06:11:22;;;;;;;7.30;3.72;;;8.50;99.90;;;;;;5110797;28;20129;-58
2024/01/02 06:13:47;;;;;;;4.68;2.75;;;8.40;99.90;;;;;;5110828;28;20047;-59
2024/01/02 06:16:13;;;;;;;4.75;2.47;;;8.50;99.90;;;;;;5029704;28;20038;-58
2024/01/02 06:18:39;;;;;;;4.32;2.05;;;8.30;99.90;;;;;;5026262;28;20034;-59
2024/01/02 06:21:05;;;;;;;5.28;3.15;;;8.60;99.90;;;;;;5027836;28;20044;-59
2024/01/02 06:23:34;;;;;;;5.60;2.90;;;8.70;99.90;;;;;;5027702;28;20052;-59
2024/01/02 06:26:00;;;;;;;4.53;2.58;;;7.80;99.90;;;;;;5027802;28;20369;-59
2024/01/02 06:28:26;;;;;;;5.53;2.80;;;8.30;99.90;;;;;;5028117;28;20036;-58
2024/01/02 06:30:51;;;;;;;5.45;2.55;;;8.20;99.90;;;;;;5030178;28;20048;-60
2024/01/02 06:33:17;;;;;;;7.22;3.10;;;7.80;99.90;;;;;;5095942;28;20051;-59
2024/01/02 06:35:43;;;;;;;7.90;3.22;;;8.10;99.90;;;;;;5114894;28;20459;-60
2024/01/02 06:38:09;;;;;;;5.78;3.08;;;8.20;99.90;;;;;;5008870;28;20184;-59
2024/01/02 06:40:38;;;;;;;6.00;3.00;;;7.90;99.90;;;;;;5026771;28;20379;-59
2024/01/02 06:43:04;;;;;;;5.93;3.08;;;8.70;99.90;;;;;;5034201;28;20041;-59
2024/01/02 06:45:31;;;;;;;8.10;3.20;;;8.30;99.90;;;;;;5114946;27;20040;-60
2024/01/02 06:47:57;;;;;;;5.75;2.70;;;8.80;99.90;;;;;;5111530;28;20046;-60
2024/01/02 06:50:23;;;;;;;5.40;2.42;;;8.20;99.90;;;;;;5072165;28;20034;-59
2024/01/02 06:52:48;;;;;;;5.15;2.20;;;8.60;99.90;;;;;;5069328;28;20041;-60
2024/01/02 06:55:14;;;;;;;4.60;1.95;;;8.40;99.90;;;;;;5110743;28;20470;-60
2024/01/02 06:57:40;;;;;;;5.35;2.30;;;8.90;99.90;;;;;;5114318;28;20038;-60
2024/01/02 07:00:07;;;;;;;5.85;2.20;;;8.60;99.90;;;;;;5114411;28;20034;-59
2024/01/02 07:02:33;;;;;;;4.53;1.98;;;9.00;99.90;;;;;;5114466;28;20047;-59
2024/01/02 07:05:03;;;;;;;4.88;2.20;;;8.50;99.90;;;;;;5114869;28;20028;-59
2024/01/02 07:07:28;;;;;;;5.85;2.38;;;8.40;99.90;;;;;;5030829;28;20106;-60
2024/01/02 07:09:54;;;;;;;5.50;2.50;;;8.70;99.90;;;;;;5028517;28;20031;-59
2024/01/02 07:12:20;;;;;;;7.20;3.08;;;9.00;99.90;;;;;;5109961;28;20035;-59
2024/01/02 07:14:47;;;;;;;7.93;3.35;;;9.30;99.90;;;;;;5114287;28;20036;-59
2024/01/02 07:17:15;;;;;;;9.18;3.80;;;8.90;99.90;;;;;;5113719;28;20032;-59
2024/01/02 07:19:41;;;;;;;11.35;4.35;;;9.30;99.90;;;;;;5114532;28;20079;-59
2024/01/02 07:22:07;;;;;;;13.18;5.13;;;8.80;99.90;;;;;;5089822;28;20120;-59
2024/01/02 07:24:34;;;;;;;15.20;5.38;;;9.00;99.90;;;;;;5073304;28;20040;-59
2024/01/02 07:26:59;;;;;;;12.90;5.82;;;9.10;99.90;;;;;;5101327;28;20043;-59
2024/01/02 07:29:26;;;;;;;16.77;5.75;;;9.50;99.90;;;;;;5111677;28;20062;-60
2024/01/02 07:31:51;;;;;;;12.52;5.78;;;9.70;99.90;;;;;;5096225;28;20145;-59
2024/01/02 07:34:17;;;;;;;15.10;5.80;;;8.90;99.90;;;;;;5109326;28;20135;-59
2024/01/02 07:36:43;;;;;;;16.00;6.65;;;9.60;99.90;;;;;;5104577;28;20542;-60
2024/01/02 07:39:09;;;;;;;14.25;6.05;;;9.80;99.90;;;;;;5113366;28;20039;-59
2024/01/02 07:41:35;;;;;;;18.33;6.90;;;9.10;99.90;;;;;;5113017;28;20067;-61
2024/01/02 07:44:03;;;;;;;18.52;6.85;;;9.90;99.90;;;;;;5113338;28;20035;-59
2024/01/02 07:46:29;;;;;;;17.02;6.68;;;9.60;99.90;;;;;;5113948;28;20437;-60
2024/01/02 07:48:54;;;;;;;17.63;7.07;;;9.60;99.90;;;;;;5113642;28;20048;-60
2024/01/02 07:51:20;;;;;;;19.25;5.97;;;9.40;99.90;;;;;;5113593;28;20035;-58
2024/01/02 07:53:46;;;;;;;18.70;6.28;;;10.10;99.90;;;;;;5036858;28;20041;-59
2024/01/02 07:56:11;;;;;;;25.33;5.70;;;9.40;99.90;;;;;;5113184;27;20563;-60
2024/01/02 07:58:37;;;;;;;19.23;5.00;;;10.00;99.90;;;;;;5113137;28;20040;-59
2024/01/02 08:01:03;;;;;;;20.20;5.07;;;9.50;99.90;;;;;;5103293;28;20035;-59
2024/01/02 08:03:29;;;;;;;22.92;4.95;;;9.90;99.90;;;;;;5113318;28;20040;-59
2024/01/02 08:05:54;;;;;;;16.27;4.00;;;9.80;99.90;;;;;;5026976;28;20444;-59
2024/01/02 08:08:20;;;;;;;21.90;4.72;;;10.50;99.90;;;;;;5021371;28;20048;-59
2024/01/02 08:10:46;;;;;;;28.75;4.53;;;9.70;99.90;;;;;;5113163;28;20123;-59
2024/01/02 08:13:11;;;;;;;19.70;4.07;;;10.00;99.90;;;;;;5105691;28;20071;-59
2024/01/02 08:15:37;;;;;;;17.52;3.65;;;10.40;99.90;;;;;;5113055;28;20039;-59
2024/01/02 08:18:03;;;;;;;20.75;3.60;;;9.80;99.90;;;;;;5112735;28;20039;-60
2024/01/02 08:20:30;;;;;;;31.30;3.75;;;10.10;99.90;;;;;;5089237;28;20147;-60
2024/01/02 08:22:55;;;;;;;30.83;4.32;;;10.60;99.90;;;;;;5113248;28;20051;-59
2024/01/02 08:25:23;;;;;;;28.92;3.97;;;10.60;99.90;;;;;;5112801;28;20092;-60
2024/01/02 08:27:50;;;;;;;25.25;3.97;;;10.70;99.90;;;;;;5111507;28;20035;-60
2024/01/02 08:30:15;;;;;;;35.40;4.30;;;10.50;99.90;;;;;;5050553;28;20534;-59
2024/01/02 08:32:41;;;;;;;22.58;3.53;;;10.00;99.90;;;;;;5026346;28;20066;-60
2024/01/02 08:35:07;;;;;;;23.73;3.90;;;10.50;99.90;;;;;;5025468;28;20043;-59
2024/01/02 08:37:33;;;;;;;33.10;3.97;;;10.20;99.90;;;;;;5020082;28;20071;-59
2024/01/02 08:39:59;;;;;;;23.50;3.63;;;10.00;99.90;;;;;;5023409;28;20085;-60
2024/01/02 08:42:24;;;;;;;23.60;3.50;;;10.20;99.90;;;;;;5027149;28;20057;-60
2024/01/02 08:44:50;;;;;;;26.90;3.40;;;10.50;99.90;;;;;;5025874;28;20030;-59
2024/01/02 08:47:16;;;;;;;20.48;3.33;;;10.90;99.90;;;;;;5030360;28;20405;-60
2024/01/02 08:49:41;;;;;;;26.40;3.97;;;10.90;99.90;;;;;;5024853;28;20034;-60
2024/01/02 08:52:07;;;;;;;21.70;3.53;;;10.80;99.90;;;;;;5014820;28;20046;-60
2024/01/02 08:54:33;;;;;;;23.88;3.28;;;10.70;99.90;;;;;;5022704;28;20046;-60
2024/01/02 08:56:58;;;;;;;23.55;3.05;;;10.90;99.90;;;;;;5021137;28;20045;-60
2024/01/02 08:59:24;;;;;;;24.08;3.35;;;11.10;99.90;;;;;;4996995;28;20176;-61
2024/01/02 09:01:51;;;;;;;23.42;3.40;;;11.00;99.90;;;;;;5025343;28;20042;-60
2024/01/02 09:04:17;;;;;;;23.40;3.50;;;11.20;99.90;;;;;;5009343;28;20029;-61
2024/01/02 09:06:44;;;;;;;24.42;3.17;;;11.20;99.90;;;;;;5002008;28;20030;-58
2024/01/02 09:09:10;;;;;;;23.10;3.80;;;10.90;99.90;;;;;;5023198;28;20034;-58
2024/01/02 09:11:37;;;;;;;20.27;3.50;;;11.20;99.90;;;;;;5024778;28;20027;-59
2024/01/02 09:14:03;;;;;;;24.60;3.70;;;10.40;99.90;;;;;;5020245;28;20583;-58
2024/01/02 09:16:32;;;;;;;21.50;3.15;;;11.20;99.90;;;;;;5017103;28;20073;-58
2024/01/02 09:18:58;;;;;;;25.83;3.47;;;10.70;99.90;;;;;;5015228;28;20041;-58
2024/01/02 09:21:24;;;;;;;20.25;3.42;;;10.50;99.90;;;;;;5024649;28;20036;-59
2024/01/02 09:23:50;;;;;;;23.40;3.35;;;10.40;99.90;;;;;;5016814;28;20166;-58
2024/01/02 09:26:21;;;;;;;22.80;3.08;;;11.20;99.90;;;;;;5020833;28;20068;-58
2024/01/02 09:28:48;;;;;;;18.33;3.58;;;11.00;99.90;;;;;;5032179;28;20038;-59
2024/01/02 09:31:14;;;;;;;16.83;2.63;;;11.40;99.90;;;;;;5018854;28;20034;-60
2024/01/02 09:33:44;;;;;;;21.52;2.80;;;11.10;99.90;;;;;;5006112;28;20058;-59
2024/01/02 09:36:10;;;;;;;16.73;2.42;;;10.60;99.90;;;;;;5029117;28;20042;-59
2024/01/02 09:38:39;;;;;;;17.70;2.95;;;11.30;99.90;;;;;;5032541;28;20092;-60
2024/01/02 09:41:24;;;;;;;23.50;3.63;;;11.50;99.90;;;;;;5023184;28;20046;-59
2024/01/02 09:44:16;;;;;;;16.35;2.85;;;10.60;99.90;;;;;;5020994;28;20042;-59
2024/01/02 09:47:22;;;;;;;25.85;4.13;;;11.30;99.90;;;;;;5025612;28;20033;-58
2024/01/02 09:49:51;;;;;;;18.90;2.80;;;11.20;99.90;;;;;;5025656;28;20399;-59
2024/01/02 09:52:38;;;;;;;21.45;3.15;;;11.40;99.90;;;;;;5017517;28;20520;-59
2024/01/02 09:55:34;;;;;;;18.52;3.25;;;11.50;99.90;;;;;;5019440;28;20042;-58
2024/01/02 09:58:12;;;;;;;21.05;3.33;;;10.60;99.90;;;;;;5025068;28;20046;-60
2024/01/02 10:01:22;;;;;;;21.30;3.20;;;10.70;99.90;;;;;;4998694;28;20090;-58
2024/01/02 10:03:48;;;;;;;14.27;2.80;;;11.50;99.90;;;;;;5017977;28;20069;-59
2024/01/02 10:06:37;;;;;;;24.33;3.47;;;10.70;99.90;;;;;;5027947;28;20084;-59
2024/01/02 10:09:20;;;;;;;27.50;3.90;;;11.10;99.90;;;;;;5013541;28;20087;-59
2024/01/02 10:12:00;;;;;;;23.13;3.33;;;10.60;99.90;;;;;;5020979;28;20122;-59
2024/01/02 10:14:54;;;;;;;22.27;3.38;;;11.20;99.90;;;;;;5028761;28;20042;-59
2024/01/02 10:18:01;;;;;;;23.67;3.58;;;11.40;99.90;;;;;;5012150;28;20049;-59
2024/01/02 10:20:49;;;;;;;26.23;3.47;;;10.80;99.90;;;;;;5022097;28;20045;-60
2024/01/02 10:23:43;;;;;;;22.90;3.55;;;10.60;99.90;;;;;;5020485;28;20139;-59
2024/01/02 10:26:09;;;;;;;20.00;3.90;;;11.30;99.90;;;;;;5025351;28;20415;-59
2024/01/02 10:28:42;;;;;;;28.27;3.55;;;11.20;99.90;;;;;;5026053;28;20118;-59
2024/01/02 10:31:19;;;;;;;28.85;3.63;;;11.10;99.90;;;;;;5014067;28;20058;-58
2024/01/02 10:33:56;;;;;;;30.60;3.78;;;11.30;99.90;;;;;;5025281;28;20055;-59
2024/01/02 10:36:22;;;;;;;24.30;4.15;;;11.40;99.90;;;;;;5029698;28;20034;-60
2024/01/02 10:39:17;;;;;;;26.67;4.50;;;11.10;99.90;;;;;;5024540;28;20043;-60
2024/01/02 10:42:07;;;;;;;35.58;5.80;;;11.20;99.90;;;;;;5025908;28;21082;-59
2024/01/02 10:44:49;;;;;;;31.42;4.63;;;11.80;99.90;;;;;;5034447;28;20075;-59
2024/01/02 10:47:41;;;;;;;31.00;5.28;;;10.90;99.90;;;;;;5021915;28;20034;-59
2024/01/02 10:50:14;;;;;;;38.85;6.22;;;11.40;99.90;;;;;;5023285;28;20148;-59
2024/01/02 10:53:03;;;;;;;31.07;5.63;;;11.00;99.90;;;;;;5028414;28;20166;-60
2024/01/02 10:55:50;;;;;;;34.72;5.70;;;11.10;99.90;;;;;;5027107;28;20054;-59
2024/01/02 10:58:23;;;;;;;42.13;6.00;;;10.90;99.90;;;;;;5026322;28;20076;-59
2024/01/02 11:01:25;;;;;;;39.85;5.22;;;11.80;99.90;;;;;;5015700;28;20124;-59
2024/01/02 11:04:00;;;;;;;39.03;6.32;;;10.90;99.90;;;;;;5020436;28;20050;-59
2024/01/02 11:06:49;;;;;;;39.47;5.85;;;11.80;99.90;;;;;;5026578;28;20053;-59
2024/01/02 11:09:32;;;;;;;43.83;6.47;;;11.80;99.90;;;;;;5024922;28;20479;-59
2024/01/02 11:11:59;;;;;;;42.10;6.28;;;11.90;99.90;;;;;;5011302;28;20038;-59
2024/01/02 11:14:27;;;;;;;37.17;5.85;;;11.10;99.90;;;;;;4997035;28;20038;-58
2024/01/02 11:16:56;;;;;;;44.70;6.50;;;11.80;99.90;;;;;;5034437;28;20063;-58
2024/01/02 11:19:31;;;;;;;32.30;6.13;;;11.40;99.90;;;;;;5020968;28;20071;-59
2024/01/02 11:22:33;;;;;;;37.25;5.47;;;11.10;99.90;;;;;;5025417;28;20065;-59
2024/01/02 11:25:03;;;;;;;36.53;6.30;;;12.00;99.90;;;;;;5031272;28;20054;-58
2024/01/02 11:27:30;;;;;;;35.38;6.10;;;11.20;99.90;;;;;;5017862;28;20048;-58
2024/01/02 11:29:56;;;;;;;42.28;6.28;;;11.00;99.90;;;;;;5020588;28;20033;-59
2024/01/02 11:32:52;;;;;;;42.42;6.97;;;11.20;99.90;;;;;;5024116;27;20086;-58
2024/01/02 11:35:18;;;;;;;37.97;6.43;;;12.00;99.90;;;;;;5018225;28;20073;-58
2024/01/02 11:38:08;;;;;;;39.78;6.20;;;11.10;99.90;;;;;;5015528;28;20414;-58
2024/01/02 11:40:52;;;;;;;35.60;6.93;;;12.00;99.90;;;;;;5015511;28;20032;-58
2024/01/02 11:43:41;;;;;;;36.30;6.27;;;11.50;99.90;;;;;;5024475;28;20046;-59
2024/01/02 11:46:07;;;;;;;36.53;6.43;;;11.90;99.90;;;;;;4999675;28;20035;-58
2024/01/02 11:48:59;;;;;;;37.90;6.18;;;11.40;99.90;;;;;;5013443;28;20449;-58
2024/01/02 11:51:27;;;;;;;42.72;6.75;;;11.20;99.90;;;;;;5012800;28;20545;-58
2024/01/02 11:53:59;;;;;;;35.13;7.90;;;11.00;99.90;;;;;;5012697;28;20042;-59
2024/01/02 11:56:28;;;;;;;37.95;7.32;;;11.90;99.90;;;;;;5015697;28;20034;-58
2024/01/02 11:59:06;;;;;;;49.03;8.52;;;11.00;99.90;;;;;;5017020;28;20038;-58
2024/01/02 12:01:52;;;;;;;38.05;7.63;;;11.10;99.90;;;;;;5013885;28;20039;-58
2024/01/02 12:04:30;;;;;;;47.65;8.15;;;11.50;99.90;;;;;;5022699;28;20403;-58
2024/01/02 12:07:18;;;;;;;45.47;7.20;;;11.60;99.90;;;;;;5015983;28;20502;-59
2024/01/02 12:09:46;;;;;;;50.08;7.50;;;11.80;99.90;;;;;;5011053;28;20504;-59
2024/01/02 12:12:30;;;;;;;49.00;7.85;;;11.20;99.90;;;;;;5014413;28;20139;-59
2024/01/02 12:15:26;;;;;;;47.67;8.02;;;11.10;99.90;;;;;;5018233;28;20036;-59
2024/01/02 12:18:06;;;;;;;55.20;8.23;;;11.20;99.90;;;;;;5006155;28;20034;-59
2024/01/02 12:20:44;;;;;;;45.50;7.53;;;11.30;99.90;;;;;;5019527;28;20492;-59
2024/01/02 12:23:11;;;;;;;42.30;8.45;;;11.70;99.90;;;;;;5017052;28;20444;-58
2024/01/02 12:25:42;;;;;;;43.42;7.55;;;11.10;99.90;;;;;;5021124;28;20034;-59
2024/01/02 12:28:09;;;;;;;43.33;7.75;;;11.10;99.90;;;;;;5010140;28;20366;-59
2024/01/02 12:30:42;;;;;;;41.00;7.60;;;11.90;99.90;;;;;;5005135;28;20045;-59
2024/01/02 12:33:27;;;;;;;56.60;11.13;;;11.10;99.90;;;;;;5013942;28;20057;-59
2024/01/02 12:35:56;;;;;;;40.38;7.57;;;11.20;99.90;;;;;;5006003;28;20045;-59
2024/01/02 12:38:24;;;;;;;48.67;8.32;;;11.70;99.90;;;;;;5097550;28;20032;-58
2024/01/02 12:40:55;;;;;;;46.13;8.98;;;11.20;99.90;;;;;;5072192;28;20084;-59
2024/01/02 12:43:25;;;;;;;48.28;8.55;;;11.10;99.90;;;;;;5098676;28;20039;-58
2024/01/02 12:46:11;;;;;;;46.00;8.32;;;11.90;99.90;;;;;;5110586;28;20449;-58
2024/01/02 12:48:46;;;;;;;41.95;8.90;;;11.40;99.90;;;;;;5110381;28;20031;-59
2024/01/02 12:51:11;;;;;;;49.35;10.10;;;11.00;99.90;;;;;;5112502;28;20039;-59
2024/01/02 12:53:41;;;;;;;44.78;8.57;;;11.20;99.90;;;;;;5112324;28;20039;-59
2024/01/02 12:56:09;;;;;;;53.25;9.32;;;11.90;99.90;;;;;;5112234;28;20061;-59